createdAt,value
2023-04-13T00:01:12.199Z,99499.81
2023-04-13T00:03:40.030Z,99496.47
2023-04-13T00:06:11.095Z,99491.94
2023-04-13T00:08:38.740Z,99489.34
2023-04-13T00:11:07.502Z,99492.88
2023-04-13T00:13:41.473Z,99487.19
2023-04-13T00:16:10.355Z,99489.91
2023-04-13T00:18:37.488Z,99488.78
2023-04-13T00:21:04.865Z,99487.97
2023-04-13T00:23:32.491Z,99483.41
2023-04-13T00:26:01.524Z,99475.47
2023-04-13T00:28:29.727Z,99478.16
2023-04-13T00:30:59.534Z,99480.75
2023-04-13T00:33:26.821Z,99478.88
2023-04-13T00:35:53.974Z,99479.88
2023-04-13T00:38:24.054Z,99478.59
2023-04-13T00:40:52.619Z,99476.19
2023-04-13T00:43:20.609Z,99473.69
2023-04-13T00:45:49.914Z,99476.38
2023-04-13T00:48:17.404Z,99472.12
2023-04-13T00:50:45.167Z,99470.28
2023-04-13T00:53:13.787Z,99475.34
2023-04-13T00:55:42.804Z,99477.28
2023-04-13T00:58:10.245Z,99472.12
2023-04-13T01:00:39.378Z,99476.19
2023-04-13T01:03:07.143Z,99479.81
2023-04-13T01:05:50.317Z,99471.72
2023-04-13T01:08:28.740Z,99472.66
2023-04-13T01:10:58.960Z,99477.56
2023-04-13T01:13:41.201Z,99470.62
2023-04-13T01:16:21.691Z,99475.06
2023-04-13T01:18:52.574Z,99463.97
2023-04-13T01:21:24.759Z,99468.25
2023-04-13T01:24:10.580Z,99472.56
2023-04-13T01:26:52.922Z,99473.69
2023-04-13T01:29:20.516Z,99468.41
2023-04-13T01:31:48.916Z,99463.12
2023-04-13T01:34:16.616Z,99468.63
2023-04-13T01:36:45.807Z,99463.34
2023-04-13T01:39:22.453Z,99467.16
2023-04-13T01:41:51.652Z,99474.09
2023-04-13T01:44:19.344Z,99470.84
2023-04-13T01:46:49.590Z,99472.81
2023-04-13T01:49:21.087Z,99471.22
2023-04-13T01:51:51.287Z,99464.72
2023-04-13T01:54:21.094Z,99471.00
2023-04-13T01:56:48.950Z,99466.22
2023-04-13T01:59:16.803Z,99461.25
2023-04-13T02:01:44.138Z,99468.06
2023-04-13T02:04:11.962Z,99470.56
2023-04-13T02:06:39.607Z,99471.78
2023-04-13T02:09:07.386Z,99468.25
2023-04-13T02:11:36.413Z,99466.94
2023-04-13T02:14:04.883Z,99473.59
2023-04-13T02:16:32.415Z,99467.37
2023-04-13T02:19:00.235Z,99469.25
2023-04-13T02:21:28.312Z,99473.22
2023-04-13T02:23:55.841Z,99467.59
2023-04-13T02:26:23.133Z,99475.06
2023-04-13T02:28:51.490Z,99466.38
2023-04-13T02:31:20.685Z,99469.19
2023-04-13T02:33:47.956Z,99473.38
2023-04-13T02:36:17.466Z,99474.03
2023-04-13T02:38:45.697Z,99467.91
2023-04-13T02:41:13.590Z,99469.28
2023-04-13T02:43:40.719Z,99465.59
2023-04-13T02:46:08.865Z,99469.34
2023-04-13T02:48:37.071Z,99468.72
2023-04-13T02:51:05.017Z,99463.62
2023-04-13T02:53:32.701Z,99461.84
2023-04-13T02:56:00.862Z,99462.06
2023-04-13T02:58:31.524Z,99465.59
2023-04-13T03:00:59.358Z,99463.81
2023-04-13T03:03:26.694Z,99463.53
2023-04-13T03:05:53.842Z,99464.12
2023-04-13T03:08:21.331Z,99462.56
2023-04-13T03:10:50.043Z,99466.53
2023-04-13T03:13:17.194Z,99465.66
2023-04-13T03:15:45.209Z,99463.69
2023-04-13T03:18:13.251Z,99460.75
2023-04-13T03:20:40.359Z,99465.66
2023-04-13T03:23:07.849Z,99470.62
2023-04-13T03:25:35.521Z,99473.69
2023-04-13T03:28:03.460Z,99463.44
2023-04-13T03:30:34.277Z,99468.25
2023-04-13T03:33:02.445Z,99462.03
2023-04-13T03:35:30.256Z,99458.94
2023-04-13T03:37:58.065Z,99455.62
2023-04-13T03:40:26.225Z,99454.59
2023-04-13T03:42:53.532Z,99460.97
2023-04-13T03:45:22.332Z,99457.56
2023-04-13T03:47:49.812Z,99457.47
2023-04-13T03:50:19.162Z,99460.41
2023-04-13T03:52:46.648Z,99457.28
2023-04-13T03:55:14.102Z,99453.31
2023-04-13T03:57:42.038Z,99454.34
2023-04-13T04:00:14.121Z,99452.87
2023-04-13T04:02:45.288Z,99450.94
2023-04-13T04:05:13.072Z,99448.28
2023-04-13T04:07:40.600Z,99453.47
2023-04-13T04:10:10.703Z,99456.78
2023-04-13T04:12:37.921Z,99463.72
2023-04-13T04:15:08.602Z,99460.94
2023-04-13T04:17:39.413Z,99455.56
2023-04-13T04:20:07.952Z,99461.84
2023-04-13T04:22:36.666Z,99456.69
2023-04-13T04:25:04.617Z,99456.59
2023-04-13T04:27:37.921Z,99459.63
2023-04-13T04:30:07.271Z,99461.13
2023-04-13T04:32:35.891Z,99465.16
2023-04-13T04:35:04.973Z,99460.19
2023-04-13T04:37:37.517Z,99464.69
2023-04-13T04:40:13.061Z,99466.06
2023-04-13T04:42:40.571Z,99471.94
2023-04-13T04:45:09.350Z,99464.12
2023-04-13T04:47:43.816Z,99474.59
2023-04-13T04:50:14.639Z,99471.19
2023-04-13T04:52:43.160Z,99467.53
2023-04-13T04:55:11.154Z,99461.97
2023-04-13T04:57:39.318Z,99466.72
2023-04-13T05:00:16.897Z,99457.69
2023-04-13T05:02:44.843Z,99468.66
2023-04-13T05:05:12.464Z,99458.41
2023-04-13T05:07:39.809Z,99471.91
2023-04-13T05:10:09.233Z,99468.78
2023-04-13T05:12:37.617Z,99472.22
2023-04-13T05:15:06.445Z,99473.31
2023-04-13T05:17:36.419Z,99472.25
2023-04-13T05:20:07.266Z,99473.50
2023-04-13T05:22:35.912Z,99477.31
2023-04-13T05:25:03.959Z,99473.03
2023-04-13T05:27:31.171Z,99474.94
2023-04-13T05:29:59.048Z,99479.09
2023-04-13T05:32:26.433Z,99477.22
2023-04-13T05:34:53.900Z,99486.75
2023-04-13T05:37:21.573Z,99482.50
2023-04-13T05:39:48.797Z,99487.00
2023-04-13T05:42:16.512Z,99479.38
2023-04-13T05:44:44.173Z,99478.94
2023-04-13T05:47:11.851Z,99477.56
2023-04-13T05:49:39.283Z,99477.13
2023-04-13T05:52:10.624Z,99473.34
2023-04-13T05:54:39.631Z,99471.53
2023-04-13T05:57:07.136Z,99465.56
2023-04-13T05:59:35.623Z,99461.53
2023-04-13T06:02:03.614Z,99478.41
2023-04-13T06:04:31.951Z,99470.56
2023-04-13T06:06:59.309Z,99463.09
2023-04-13T06:09:27.218Z,99477.00
2023-04-13T06:11:55.324Z,99481.03
2023-04-13T06:14:23.472Z,99479.78
2023-04-13T06:16:52.200Z,99482.09
2023-04-13T06:19:19.657Z,99481.81
2023-04-13T06:21:47.163Z,99484.34
2023-04-13T06:24:14.467Z,99480.75
2023-04-13T06:26:42.751Z,99482.59
2023-04-13T06:29:10.662Z,99480.63
2023-04-13T06:31:38.624Z,99480.47
2023-04-13T06:34:07.440Z,99484.34
2023-04-13T06:36:34.985Z,99486.91
2023-04-13T06:39:03.379Z,99488.16
2023-04-13T06:41:32.215Z,99487.34
2023-04-13T06:44:10.506Z,99484.09
2023-04-13T06:46:39.614Z,99485.88
2023-04-13T06:49:07.536Z,99481.72
2023-04-13T06:51:34.848Z,99492.41
2023-04-13T06:54:02.362Z,99483.28
2023-04-13T06:56:30.017Z,99497.09
2023-04-13T06:59:02.558Z,99494.19
2023-04-13T07:01:31.903Z,99493.78
2023-04-13T07:03:59.377Z,99493.88
2023-04-13T07:06:27.516Z,99502.81
2023-04-13T07:08:55.018Z,99498.69
2023-04-13T07:11:22.425Z,99490.44
2023-04-13T07:13:49.631Z,99502.00
2023-04-13T07:16:17.138Z,99497.72
2023-04-13T07:18:44.746Z,99503.25
2023-04-13T07:21:11.918Z,99504.63
2023-04-13T07:23:39.907Z,99508.06
2023-04-13T07:26:13.070Z,99510.72
2023-04-13T07:28:41.592Z,99501.19
2023-04-13T07:31:09.260Z,99506.00
2023-04-13T07:33:39.528Z,99513.87
2023-04-13T07:36:08.666Z,99509.56
2023-04-13T07:38:37.023Z,99507.94
2023-04-13T07:41:04.724Z,99512.19
2023-04-13T07:43:35.324Z,99515.34
2023-04-13T07:46:11.864Z,99508.19
2023-04-13T07:48:39.831Z,99507.63
2023-04-13T07:51:16.034Z,99505.00
2023-04-13T07:53:43.881Z,99508.44
2023-04-13T07:56:11.622Z,99515.84
2023-04-13T07:58:38.948Z,99510.66
2023-04-13T08:01:07.099Z,99503.88
2023-04-13T08:03:35.515Z,99501.41
2023-04-13T08:06:07.817Z,99511.38
2023-04-13T08:08:35.691Z,99504.59
2023-04-13T08:11:03.339Z,99499.50
2023-04-13T08:13:32.819Z,99504.59
2023-04-13T08:16:00.500Z,99501.72
2023-04-13T08:18:27.972Z,99496.34
2023-04-13T08:20:55.564Z,99497.19
2023-04-13T08:23:23.918Z,99491.94
2023-04-13T08:25:51.736Z,99492.22
2023-04-13T08:28:19.005Z,99507.47
2023-04-13T08:30:46.608Z,99499.63
2023-04-13T08:33:14.294Z,99502.44
2023-04-13T08:35:41.763Z,99497.75
2023-04-13T08:38:10.262Z,99502.69
2023-04-13T08:40:39.744Z,99510.16
2023-04-13T08:43:07.638Z,99503.13
2023-04-13T08:45:35.410Z,99505.50
2023-04-13T08:48:03.520Z,99493.97
2023-04-13T08:50:32.614Z,99498.59
2023-04-13T08:53:00.584Z,99499.63
2023-04-13T08:55:29.415Z,99492.09
2023-04-13T08:57:57.925Z,99496.38
2023-04-13T09:00:25.519Z,99487.41
2023-04-13T09:03:04.485Z,99495.34
2023-04-13T09:05:39.055Z,99489.41
2023-04-13T09:08:08.162Z,99499.22
2023-04-13T09:10:36.742Z,99493.84
2023-04-13T09:13:04.136Z,99489.56
2023-04-13T09:15:32.273Z,99489.25
2023-04-13T09:18:10.431Z,99480.34
2023-04-13T09:20:38.362Z,99486.50
2023-04-13T09:23:14.563Z,99484.28
2023-04-13T09:25:42.272Z,99488.31
2023-04-13T09:28:19.722Z,99488.00
2023-04-13T09:30:47.515Z,99482.72
2023-04-13T09:33:16.958Z,99486.66
2023-04-13T09:35:44.145Z,99490.59
2023-04-13T09:38:15.369Z,99484.88
2023-04-13T09:40:49.505Z,99486.00
2023-04-13T09:43:17.105Z,99488.34
2023-04-13T09:45:44.567Z,99490.16
2023-04-13T09:48:21.778Z,99482.47
2023-04-13T09:51:04.957Z,99484.84
2023-04-13T09:53:46.632Z,99475.00
2023-04-13T09:56:14.300Z,99472.38
2023-04-13T09:58:43.250Z,99478.31
2023-04-13T10:01:10.488Z,99468.09
2023-04-13T10:03:38.539Z,99476.03
2023-04-13T10:06:07.915Z,99480.34
2023-04-13T10:08:42.751Z,99483.59
2023-04-13T10:11:14.742Z,99483.59
2023-04-13T10:13:53.951Z,99483.47
2023-04-13T10:16:33.638Z,99480.25
2023-04-13T10:19:05.136Z,99476.31
2023-04-13T10:21:35.680Z,99478.88
2023-04-13T10:26:37.780Z,99476.47
2023-04-13T10:29:06.077Z,99470.81
2023-04-13T10:31:39.923Z,99466.63
2023-04-13T10:34:08.502Z,99470.16
2023-04-13T10:36:38.468Z,99472.91
2023-04-13T10:39:06.157Z,99468.19
2023-04-13T10:41:34.023Z,99464.72
2023-04-13T10:44:05.331Z,99469.00
2023-04-13T10:46:34.309Z,99469.13
2023-04-13T10:49:03.331Z,99466.25
2023-04-13T10:51:40.340Z,99462.53
2023-04-13T10:54:08.383Z,99454.94
2023-04-13T10:56:36.153Z,99451.16
2023-04-13T10:59:04.460Z,99458.00
2023-04-13T11:01:33.825Z,99454.31
2023-04-13T11:04:06.838Z,99450.44
2023-04-13T11:06:37.994Z,99443.31
2023-04-13T11:09:07.310Z,99456.03
2023-04-13T11:11:36.937Z,99440.50
2023-04-13T11:14:04.669Z,99446.38
2023-04-13T11:16:31.955Z,99450.22
2023-04-13T11:19:03.651Z,99448.31
2023-04-13T11:21:35.665Z,99444.87
2023-04-13T11:24:03.898Z,99443.53
2023-04-13T11:26:38.234Z,99427.66
2023-04-13T11:29:06.235Z,99433.34
2023-04-13T11:31:42.334Z,99430.37
2023-04-13T11:34:11.368Z,99430.47
2023-04-13T11:36:39.824Z,99427.69
2023-04-13T11:39:10.979Z,99426.25
2023-04-13T11:41:40.669Z,99424.09
2023-04-13T11:44:07.847Z,99423.09
2023-04-13T11:46:35.070Z,99420.97
2023-04-13T11:49:02.781Z,99421.16
2023-04-13T11:51:31.818Z,99418.34
2023-04-13T11:53:59.686Z,99411.56
2023-04-13T11:56:27.307Z,99421.19
2023-04-13T11:58:54.557Z,99412.16
2023-04-13T12:01:26.313Z,99407.91
2023-04-13T12:04:14.930Z,99415.63
2023-04-13T12:06:47.333Z,99405.28
2023-04-13T12:09:17.980Z,99404.41
2023-04-13T12:12:15.163Z,99403.06
2023-04-13T12:14:57.730Z,99397.63
2023-04-13T12:17:41.242Z,99393.34
2023-04-13T12:20:16.543Z,99385.66
2023-04-13T12:22:55.838Z,99387.28
2023-04-13T12:28:03.405Z,99396.12
2023-04-13T12:30:32.843Z,99387.53
2023-04-13T12:33:00.078Z,99373.09
2023-04-13T12:35:27.225Z,99373.84
2023-04-13T12:37:54.634Z,99377.19
2023-04-13T12:40:21.856Z,99380.81
2023-04-13T12:42:49.244Z,99377.59
2023-04-13T12:45:16.882Z,99376.97
2023-04-13T12:47:44.119Z,99367.13
2023-04-13T12:50:12.046Z,99368.47
2023-04-13T12:52:42.601Z,99359.91
2023-04-13T12:55:10.308Z,99352.72
2023-04-13T12:57:37.836Z,99357.97
2023-04-13T13:00:10.602Z,99358.16
2023-04-13T13:02:38.291Z,99363.66
2023-04-13T13:05:06.601Z,99364.28
2023-04-13T13:07:33.736Z,99365.03
2023-04-13T13:10:05.002Z,99356.78
2023-04-13T13:12:37.713Z,99350.56
2023-04-13T13:15:10.304Z,99351.25
2023-04-13T13:17:41.225Z,99357.31
2023-04-13T13:20:10.723Z,99361.44
2023-04-13T13:22:38.211Z,99358.66
2023-04-13T13:25:07.161Z,99353.78
2023-04-13T13:28:05.566Z,99354.16
2023-04-13T13:30:26.626Z,99348.66
2023-04-13T13:32:53.757Z,99349.50
2023-04-13T13:35:20.982Z,99342.59
2023-04-13T13:37:48.374Z,99333.62
2023-04-13T13:40:15.629Z,99335.66
2023-04-13T13:42:52.025Z,99328.59
2023-04-13T13:45:23.658Z,99338.13
2023-04-13T13:47:57.275Z,99331.34
2023-04-13T13:50:27.376Z,99330.25
2023-04-13T13:53:03.678Z,99324.69
2023-04-13T13:55:32.516Z,99323.00
2023-04-13T13:57:59.837Z,99326.44
2023-04-13T14:00:27.215Z,99326.03
2023-04-13T14:02:55.101Z,99318.84
2023-04-13T14:05:22.675Z,99317.88
2023-04-13T14:07:50.960Z,99310.75
2023-04-13T14:10:18.761Z,99313.09
2023-04-13T14:12:49.612Z,99321.78
2023-04-13T14:15:17.879Z,99317.59
2023-04-13T14:17:55.536Z,99318.34
2023-04-13T14:20:34.527Z,99309.56
2023-04-13T14:23:02.033Z,99306.94
2023-04-13T14:25:29.211Z,99314.00
2023-04-13T14:27:56.530Z,99304.69
2023-04-13T14:30:26.267Z,99307.53
2023-04-13T14:32:54.925Z,99302.28
2023-04-13T14:35:22.277Z,99300.97
2023-04-13T14:37:49.822Z,99305.50
2023-04-13T14:40:21.662Z,99301.63
2023-04-13T14:42:50.932Z,99297.69
2023-04-13T14:45:19.328Z,99303.25
2023-04-13T14:47:46.709Z,99303.16
2023-04-13T14:50:15.451Z,99310.97
2023-04-13T14:52:44.370Z,99312.78
2023-04-13T14:55:12.186Z,99308.84
2023-04-13T14:57:40.287Z,99314.28
2023-04-13T15:00:38.918Z,99309.66
2023-04-13T15:03:07.882Z,99311.47
2023-04-13T15:05:43.533Z,99315.19
2023-04-13T15:08:17.704Z,99316.03
2023-04-13T15:10:45.850Z,99322.44
2023-04-13T15:13:13.216Z,99318.34
2023-04-13T15:15:40.811Z,99319.66
2023-04-13T15:18:09.104Z,99318.69
2023-04-13T15:20:36.636Z,99326.16
2023-04-13T15:23:03.836Z,99322.87
2023-04-13T15:25:31.263Z,99322.78
2023-04-13T15:27:58.789Z,99327.72
2023-04-13T15:30:30.992Z,99334.91
2023-04-13T15:32:59.983Z,99331.59
2023-04-13T15:35:27.467Z,99322.03
2023-04-13T15:37:54.957Z,99327.31
2023-04-13T15:40:25.718Z,99331.09
2023-04-13T15:42:53.024Z,99331.34
2023-04-13T15:45:21.040Z,99332.47
2023-04-13T15:47:48.530Z,99321.75
2023-04-13T15:50:16.042Z,99326.56
2023-04-13T15:52:43.192Z,99318.50
2023-04-13T15:55:10.656Z,99319.62
2023-04-13T15:57:38.315Z,99316.88
2023-04-13T16:00:08.671Z,99307.78
2023-04-13T16:02:36.616Z,99314.78
2023-04-13T16:05:04.275Z,99307.22
2023-04-13T16:07:31.796Z,99306.69
2023-04-13T16:10:01.468Z,99301.44
2023-04-13T16:12:32.364Z,99299.50
2023-04-13T16:15:03.234Z,99303.09
2023-04-13T16:17:31.724Z,99294.03
2023-04-13T16:20:31.801Z,99294.13
2023-04-13T16:23:02.398Z,99288.38
2023-04-13T16:25:30.740Z,99296.06
2023-04-13T16:27:58.172Z,99287.41
2023-04-13T16:30:25.912Z,99286.03
2023-04-13T16:32:53.077Z,99274.50
2023-04-13T16:35:20.292Z,99278.31
2023-04-13T16:37:47.782Z,99287.94
2023-04-13T16:40:15.716Z,99279.84
2023-04-13T16:42:43.563Z,99282.19
2023-04-13T16:45:14.928Z,99284.78
2023-04-13T16:47:42.777Z,99281.94
2023-04-13T16:50:11.075Z,99284.53
2023-04-13T16:52:41.163Z,99279.13
2023-04-13T16:55:14.781Z,99289.12
2023-04-13T16:57:42.973Z,99293.25
2023-04-13T17:00:11.033Z,99298.25
2023-04-13T17:02:39.617Z,99298.03
2023-04-13T17:05:11.634Z,99296.91
2023-04-13T17:07:39.764Z,99298.19
2023-04-13T17:10:08.320Z,99308.09
2023-04-13T17:12:36.256Z,99305.19
2023-04-13T17:15:05.295Z,99315.13
2023-04-13T17:17:32.913Z,99312.09
2023-04-13T17:20:00.066Z,99311.25
2023-04-13T17:22:27.306Z,99312.22
2023-04-13T17:24:55.515Z,99312.63
2023-04-13T17:27:22.862Z,99311.50
2023-04-13T17:29:50.072Z,99303.41
2023-04-13T17:32:19.582Z,99313.63
2023-04-13T17:34:47.991Z,99307.34
2023-04-13T17:37:15.781Z,99317.38
2023-04-13T17:39:47.414Z,99318.62
2023-04-13T17:42:15.236Z,99320.28
2023-04-13T17:44:43.562Z,99319.97
2023-04-13T17:47:10.909Z,99325.19
2023-04-13T17:49:38.687Z,99319.16
2023-04-13T17:52:06.635Z,99325.47
2023-04-13T17:54:33.880Z,99323.25
2023-04-13T17:57:01.740Z,99333.44
2023-04-13T17:59:29.298Z,99332.47
2023-04-13T18:01:58.514Z,99334.00
2023-04-13T18:04:26.641Z,99338.37
2023-04-13T18:06:56.447Z,99333.97
2023-04-13T18:09:24.911Z,99345.37
2023-04-13T18:11:52.431Z,99342.56
2023-04-13T18:14:19.666Z,99344.34
2023-04-13T18:16:46.926Z,99339.41
2023-04-13T18:19:14.604Z,99335.69
2023-04-13T18:21:41.761Z,99335.34
2023-04-13T18:24:09.200Z,99333.69
2023-04-13T18:26:36.787Z,99329.59
2023-04-13T18:29:03.983Z,99330.53
2023-04-13T18:31:32.247Z,99334.59
2023-04-13T18:33:59.971Z,99337.50
2023-04-13T18:36:27.795Z,99332.75
2023-04-13T18:38:55.039Z,99330.97
2023-04-13T18:41:22.537Z,99336.28
2023-04-13T18:43:49.779Z,99340.47
2023-04-13T18:46:17.036Z,99329.97
2023-04-13T18:48:44.586Z,99329.28
2023-04-13T18:51:12.418Z,99338.50
2023-04-13T18:53:42.457Z,99336.53
2023-04-13T18:56:09.952Z,99336.78
2023-04-13T18:58:37.384Z,99344.16
2023-04-13T19:01:04.690Z,99342.94
2023-04-13T19:03:32.286Z,99341.41
2023-04-13T19:05:59.628Z,99338.94
2023-04-13T19:08:26.832Z,99335.63
2023-04-13T19:10:54.271Z,99344.72
2023-04-13T19:13:21.411Z,99341.41
2023-04-13T19:15:48.601Z,99335.06
2023-04-13T19:18:18.186Z,99343.34
2023-04-13T19:20:45.473Z,99340.63
2023-04-13T19:23:15.539Z,99346.69
2023-04-13T19:25:43.006Z,99337.53
2023-04-13T19:28:10.264Z,99333.25
2023-04-13T19:30:37.402Z,99326.56
2023-04-13T19:33:04.861Z,99324.56
2023-04-13T19:35:32.841Z,99327.50
2023-04-13T19:37:59.970Z,99311.94
2023-04-13T19:40:27.515Z,99313.50
2023-04-13T19:42:54.779Z,99305.50
2023-04-13T19:45:21.911Z,99296.22
2023-04-13T19:47:49.519Z,99300.19
2023-04-13T19:50:16.716Z,99300.25
2023-04-13T19:52:47.101Z,99292.84
2023-04-13T19:55:15.433Z,99298.19
2023-04-13T19:57:43.039Z,99300.31
2023-04-13T20:00:17.399Z,99302.09
2023-04-13T20:02:49.677Z,99293.16
2023-04-13T20:05:18.463Z,99295.91
2023-04-13T20:07:46.017Z,99278.06
2023-04-13T20:10:13.173Z,99289.22
2023-04-13T20:12:40.381Z,99286.31
2023-04-13T20:15:08.138Z,99284.53
2023-04-13T20:17:35.398Z,99285.31
2023-04-13T20:20:02.961Z,99282.94
2023-04-13T20:22:30.538Z,99284.75
2023-04-13T20:24:58.153Z,99282.38
2023-04-13T20:27:25.670Z,99282.66
2023-04-13T20:29:53.141Z,99271.16
2023-04-13T20:32:20.502Z,99273.47
2023-04-13T20:34:48.704Z,99271.25
2023-04-13T20:37:18.330Z,99270.03
2023-04-13T20:39:52.821Z,99274.41
2023-04-13T20:42:21.868Z,99261.09
2023-04-13T20:44:57.315Z,99257.94
2023-04-13T20:47:26.652Z,99255.47
2023-04-13T20:49:57.291Z,99245.47
2023-04-13T20:52:25.960Z,99248.59
2023-04-13T20:54:54.673Z,99243.66
2023-04-13T20:57:22.400Z,99237.34
2023-04-13T20:59:51.779Z,99248.19
2023-04-13T21:02:19.058Z,99250.50
2023-04-13T21:04:46.695Z,99235.81
2023-04-13T21:07:15.403Z,99244.84
2023-04-13T21:09:43.044Z,99238.53
2023-04-13T21:12:10.291Z,99237.56
2023-04-13T21:14:37.804Z,99238.37
2023-04-13T21:17:04.984Z,99240.78
2023-04-13T21:19:32.652Z,99238.97
2023-04-13T21:22:00.303Z,99240.75
2023-04-13T21:24:27.552Z,99256.78
2023-04-13T21:26:54.766Z,99259.28
2023-04-13T21:29:22.341Z,99255.22
2023-04-13T21:31:49.601Z,99255.03
2023-04-13T21:34:17.136Z,99257.44
2023-04-13T21:39:17.952Z,99246.25
2023-04-13T21:41:48.200Z,99238.37
2023-04-13T21:44:28.809Z,99227.97
2023-04-13T21:46:58.505Z,99211.41
2023-04-13T21:49:25.882Z,99210.81
2023-04-13T21:51:53.100Z,99198.91
2023-04-13T21:54:20.669Z,99196.50
2023-04-13T21:56:49.095Z,99198.38
2023-04-13T21:59:16.290Z,99196.34
2023-04-13T22:01:43.901Z,99185.06
2023-04-13T22:04:12.831Z,99196.09
2023-04-13T22:06:40.123Z,99190.19
2023-04-13T22:09:07.258Z,99199.53
2023-04-13T22:11:34.653Z,99191.97
2023-04-13T22:14:01.765Z,99188.25
2023-04-13T22:16:29.011Z,99181.75
2023-04-13T22:18:56.450Z,99190.16
2023-04-13T22:21:23.865Z,99180.94
2023-04-13T22:23:51.173Z,99174.34
2023-04-13T22:26:18.613Z,99172.34
2023-04-13T22:28:45.902Z,99175.53
2023-04-13T22:31:13.141Z,99168.88
2023-04-13T22:33:40.885Z,99167.66
2023-04-13T22:36:20.145Z,99173.03
2023-04-13T22:38:47.965Z,99171.38
2023-04-13T22:41:15.664Z,99159.84
2023-04-13T22:43:42.772Z,99149.09
2023-04-13T22:46:10.247Z,99139.19
2023-04-13T22:48:37.461Z,99133.44
2023-04-13T22:51:04.691Z,99137.28
2023-04-13T22:53:32.226Z,99132.31
2023-04-13T22:56:00.747Z,99129.88
2023-04-13T22:58:28.237Z,99129.72
2023-04-13T23:00:55.810Z,99124.78
2023-04-13T23:03:23.015Z,99112.84
2023-04-13T23:05:50.746Z,99112.44
2023-04-13T23:08:18.173Z,99107.59
2023-04-13T23:10:45.280Z,99098.41
2023-04-13T23:13:12.434Z,99092.47
2023-04-13T23:15:39.883Z,99083.66
2023-04-13T23:18:07.086Z,99079.63
2023-04-13T23:20:34.268Z,99077.25
2023-04-13T23:23:01.810Z,99071.09
2023-04-13T23:25:29.025Z,99055.66
2023-04-13T23:27:56.152Z,99056.34
2023-04-13T23:30:23.638Z,99057.84
2023-04-13T23:32:51.023Z,99076.50
2023-04-13T23:35:18.126Z,99079.16
2023-04-13T23:37:46.204Z,99084.25
2023-04-13T23:40:13.423Z,99079.16
2023-04-13T23:42:40.879Z,99076.94
2023-04-13T23:45:08.876Z,99082.25
2023-04-13T23:47:36.125Z,99072.25
2023-04-13T23:50:03.454Z,99066.91
2023-04-13T23:52:30.930Z,99043.56
2023-04-13T23:54:58.146Z,99036.38
2023-04-13T23:57:25.403Z,99029.47
2023-04-13T23:59:57.249Z,99011.94
